sensor_id;sensor_type;location;lat;lon;timestamp;P1;durP1;ratioP1;P2;durP2;ratioP2
1106;SDS011;540;49.448;8.612;2023-10-19T00:01:32;31.38;;;18.90;;
1106;SDS011;540;49.448;8.612;2023-10-19T00:04:01;27.63;;;19.02;;
1106;SDS011;540;49.448;8.612;2023-10-19T00:06:27;31.35;;;19.58;;
1106;SDS011;540;49.448;8.612;2023-10-19T00:08:57;30.00;;;18.55;;
1106;SDS011;540;49.448;8.612;2023-10-19T00:11:25;31.55;;;19.85;;
1106;SDS011;540;49.448;8.612;2023-10-19T00:13:55;27.83;;;19.35;;
1106;SDS011;540;49.448;8.612;2023-10-19T00:16:24;28.38;;;19.75;;
1106;SDS011;540;49.448;8.612;2023-10-19T00:18:56;28.77;;;20.20;;
1106;SDS011;540;49.448;8.612;2023-10-19T00:21:26;28.42;;;19.40;;
1106;SDS011;540;49.448;8.612;2023-10-19T00:23:54;30.17;;;19.88;;
1106;SDS011;540;49.448;8.612;2023-10-19T00:26:27;30.80;;;20.30;;
1106;SDS011;540;49.448;8.612;2023-10-19T00:29:00;29.70;;;19.25;;
1106;SDS011;540;49.448;8.612;2023-10-19T00:31:41;31.95;;;19.80;;
1106;SDS011;540;49.448;8.612;2023-10-19T00:34:09;29.08;;;19.33;;
1106;SDS011;540;49.448;8.612;2023-10-19T00:36:39;27.75;;;18.65;;
1106;SDS011;540;49.448;8.612;2023-10-19T00:39:07;31.02;;;19.70;;
1106;SDS011;540;49.448;8.612;2023-10-19T00:41:43;30.13;;;19.75;;
1106;SDS011;540;49.448;8.612;2023-10-19T00:44:14;29.17;;;19.40;;
1106;SDS011;540;49.448;8.612;2023-10-19T00:46:54;25.80;;;18.25;;
1106;SDS011;540;49.448;8.612;2023-10-19T00:49:28;25.75;;;18.05;;
1106;SDS011;540;49.448;8.612;2023-10-19T00:51:58;28.20;;;19.25;;
1106;SDS011;540;49.448;8.612;2023-10-19T00:54:38;27.42;;;18.92;;
1106;SDS011;540;49.448;8.612;2023-10-19T00:57:19;27.65;;;18.00;;
1106;SDS011;540;49.448;8.612;2023-10-19T00:59:50;28.98;;;19.02;;
1106;SDS011;540;49.448;8.612;2023-10-19T01:02:20;28.63;;;19.95;;
1106;SDS011;540;49.448;8.612;2023-10-19T01:04:56;26.90;;;18.27;;
1106;SDS011;540;49.448;8.612;2023-10-19T01:07:26;27.83;;;18.42;;
1106;SDS011;540;49.448;8.612;2023-10-19T01:10:01;29.38;;;19.42;;
1106;SDS011;540;49.448;8.612;2023-10-19T01:12:31;27.00;;;18.25;;
1106;SDS011;540;49.448;8.612;2023-10-19T01:15:08;22.63;;;17.05;;
1106;SDS011;540;49.448;8.612;2023-10-19T01:17:42;23.27;;;15.38;;
1106;SDS011;540;49.448;8.612;2023-10-19T01:20:12;19.38;;;14.13;;
1106;SDS011;540;49.448;8.612;2023-10-19T01:22:50;23.63;;;16.38;;
1106;SDS011;540;49.448;8.612;2023-10-19T01:25:32;22.05;;;15.63;;
1106;SDS011;540;49.448;8.612;2023-10-19T01:28:06;21.92;;;15.73;;
1106;SDS011;540;49.448;8.612;2023-10-19T01:30:37;22.92;;;15.57;;
1106;SDS011;540;49.448;8.612;2023-10-19T01:33:05;25.02;;;16.83;;
1106;SDS011;540;49.448;8.612;2023-10-19T01:35:39;20.50;;;15.77;;
1106;SDS011;540;49.448;8.612;2023-10-19T01:38:24;19.92;;;15.00;;
1106;SDS011;540;49.448;8.612;2023-10-19T01:40:52;18.58;;;15.32;;
1106;SDS011;540;49.448;8.612;2023-10-19T01:43:21;19.08;;;14.88;;
1106;SDS011;540;49.448;8.612;2023-10-19T01:45:52;22.08;;;15.15;;
1106;SDS011;540;49.448;8.612;2023-10-19T01:48:21;21.48;;;15.27;;
1106;SDS011;540;49.448;8.612;2023-10-19T01:50:59;22.70;;;15.93;;
1106;SDS011;540;49.448;8.612;2023-10-19T01:53:32;26.20;;;17.58;;
1106;SDS011;540;49.448;8.612;2023-10-19T01:56:00;22.02;;;16.73;;
1106;SDS011;540;49.448;8.612;2023-10-19T01:58:32;25.05;;;16.33;;
1106;SDS011;540;49.448;8.612;2023-10-19T02:01:03;23.52;;;16.42;;
1106;SDS011;540;49.448;8.612;2023-10-19T02:03:35;22.90;;;16.50;;
1106;SDS011;540;49.448;8.612;2023-10-19T02:06:02;22.85;;;16.92;;
1106;SDS011;540;49.448;8.612;2023-10-19T02:08:48;25.38;;;16.38;;
1106;SDS011;540;49.448;8.612;2023-10-19T02:11:19;23.70;;;16.92;;
1106;SDS011;540;49.448;8.612;2023-10-19T02:13:48;24.90;;;16.02;;
1106;SDS011;540;49.448;8.612;2023-10-19T02:16:17;23.80;;;16.13;;
1106;SDS011;540;49.448;8.612;2023-10-19T02:18:49;22.98;;;14.93;;
1106;SDS011;540;49.448;8.612;2023-10-19T02:21:17;23.50;;;15.13;;
1106;SDS011;540;49.448;8.612;2023-10-19T02:23:49;20.90;;;15.13;;
1106;SDS011;540;49.448;8.612;2023-10-19T02:26:18;22.60;;;15.40;;
1106;SDS011;540;49.448;8.612;2023-10-19T02:28:46;20.25;;;14.82;;
1106;SDS011;540;49.448;8.612;2023-10-19T02:31:19;20.20;;;15.65;;
1106;SDS011;540;49.448;8.612;2023-10-19T02:33:48;24.02;;;15.88;;
1106;SDS011;540;49.448;8.612;2023-10-19T02:36:18;18.30;;;14.00;;
1106;SDS011;540;49.448;8.612;2023-10-19T02:38:45;19.42;;;14.68;;
1106;SDS011;540;49.448;8.612;2023-10-19T02:41:17;20.17;;;13.70;;
1106;SDS011;540;49.448;8.612;2023-10-19T02:43:46;18.75;;;14.35;;
1106;SDS011;540;49.448;8.612;2023-10-19T02:46:17;19.45;;;13.68;;
1106;SDS011;540;49.448;8.612;2023-10-19T02:48:44;21.02;;;14.20;;
1106;SDS011;540;49.448;8.612;2023-10-19T02:51:16;19.10;;;14.93;;
1106;SDS011;540;49.448;8.612;2023-10-19T02:53:45;17.65;;;14.48;;
1106;SDS011;540;49.448;8.612;2023-10-19T02:56:15;17.42;;;13.65;;
1106;SDS011;540;49.448;8.612;2023-10-19T02:58:45;21.77;;;15.13;;
1106;SDS011;540;49.448;8.612;2023-10-19T03:01:15;19.40;;;13.80;;
1106;SDS011;540;49.448;8.612;2023-10-19T03:03:50;25.02;;;14.23;;
1106;SDS011;540;49.448;8.612;2023-10-19T03:06:20;20.85;;;14.32;;
1106;SDS011;540;49.448;8.612;2023-10-19T03:08:49;19.95;;;14.50;;
1106;SDS011;540;49.448;8.612;2023-10-19T03:11:25;19.75;;;14.35;;
1106;SDS011;540;49.448;8.612;2023-10-19T03:13:53;21.75;;;15.25;;
1106;SDS011;540;49.448;8.612;2023-10-19T03:16:23;22.98;;;15.50;;
1106;SDS011;540;49.448;8.612;2023-10-19T03:18:51;22.70;;;15.32;;
1106;SDS011;540;49.448;8.612;2023-10-19T03:21:21;19.33;;;14.60;;
1106;SDS011;540;49.448;8.612;2023-10-19T03:23:53;22.73;;;15.40;;
1106;SDS011;540;49.448;8.612;2023-10-19T03:26:22;20.98;;;14.88;;
1106;SDS011;540;49.448;8.612;2023-10-19T03:28:55;22.77;;;15.82;;
1106;SDS011;540;49.448;8.612;2023-10-19T03:31:28;22.85;;;16.23;;
1106;SDS011;540;49.448;8.612;2023-10-19T03:33:56;21.58;;;15.57;;
1106;SDS011;540;49.448;8.612;2023-10-19T03:36:25;23.70;;;16.92;;
1106;SDS011;540;49.448;8.612;2023-10-19T03:38:53;22.77;;;16.20;;
1106;SDS011;540;49.448;8.612;2023-10-19T03:41:22;27.45;;;16.13;;
1106;SDS011;540;49.448;8.612;2023-10-19T03:43:54;23.00;;;15.88;;
1106;SDS011;540;49.448;8.612;2023-10-19T03:46:24;21.02;;;17.13;;
1106;SDS011;540;49.448;8.612;2023-10-19T03:48:57;21.75;;;16.52;;
1106;SDS011;540;49.448;8.612;2023-10-19T03:51:30;22.50;;;16.27;;
1106;SDS011;540;49.448;8.612;2023-10-19T03:54:26;22.37;;;15.70;;
1106;SDS011;540;49.448;8.612;2023-10-19T03:56:55;21.88;;;15.52;;
1106;SDS011;540;49.448;8.612;2023-10-19T03:59:28;22.42;;;16.30;;
1106;SDS011;540;49.448;8.612;2023-10-19T04:02:00;22.02;;;15.55;;
1106;SDS011;540;49.448;8.612;2023-10-19T04:04:36;23.17;;;16.08;;
1106;SDS011;540;49.448;8.612;2023-10-19T04:07:06;23.60;;;15.10;;
1106;SDS011;540;49.448;8.612;2023-10-19T04:09:44;21.50;;;15.00;;
1106;SDS011;540;49.448;8.612;2023-10-19T04:12:29;27.13;;;15.60;;
1106;SDS011;540;49.448;8.612;2023-10-19T04:14:59;21.10;;;15.07;;
1106;SDS011;540;49.448;8.612;2023-10-19T04:17:36;20.02;;;15.35;;
1106;SDS011;540;49.448;8.612;2023-10-19T04:20:05;23.63;;;16.40;;
1106;SDS011;540;49.448;8.612;2023-10-19T04:22:40;22.75;;;15.00;;
1106;SDS011;540;49.448;8.612;2023-10-19T04:25:08;22.83;;;14.32;;
1106;SDS011;540;49.448;8.612;2023-10-19T04:27:38;22.00;;;15.07;;
1106;SDS011;540;49.448;8.612;2023-10-19T04:30:10;28.70;;;16.15;;
1106;SDS011;540;49.448;8.612;2023-10-19T04:32:43;23.90;;;15.40;;
1106;SDS011;540;49.448;8.612;2023-10-19T04:35:15;21.33;;;15.05;;
1106;SDS011;540;49.448;8.612;2023-10-19T04:37:50;20.30;;;14.15;;
1106;SDS011;540;49.448;8.612;2023-10-19T04:40:22;21.65;;;14.70;;
1106;SDS011;540;49.448;8.612;2023-10-19T04:42:52;22.77;;;14.95;;
1106;SDS011;540;49.448;8.612;2023-10-19T04:45:23;22.10;;;14.27;;
1106;SDS011;540;49.448;8.612;2023-10-19T04:47:53;20.80;;;13.68;;
1106;SDS011;540;49.448;8.612;2023-10-19T04:50:21;18.90;;;13.48;;
1106;SDS011;540;49.448;8.612;2023-10-19T04:52:49;19.50;;;13.65;;
1106;SDS011;540;49.448;8.612;2023-10-19T04:55:17;18.58;;;13.73;;
1106;SDS011;540;49.448;8.612;2023-10-19T04:57:46;20.25;;;13.63;;
1106;SDS011;540;49.448;8.612;2023-10-19T05:00:17;20.27;;;13.15;;
1106;SDS011;540;49.448;8.612;2023-10-19T05:02:48;20.27;;;13.75;;
1106;SDS011;540;49.448;8.612;2023-10-19T05:05:20;22.00;;;14.95;;
1106;SDS011;540;49.448;8.612;2023-10-19T05:07:48;22.27;;;13.52;;
1106;SDS011;540;49.448;8.612;2023-10-19T05:10:19;18.63;;;13.43;;
1106;SDS011;540;49.448;8.612;2023-10-19T05:12:51;18.35;;;12.85;;
1106;SDS011;540;49.448;8.612;2023-10-19T05:15:23;18.80;;;13.10;;
1106;SDS011;540;49.448;8.612;2023-10-19T05:17:52;18.83;;;12.60;;
1106;SDS011;540;49.448;8.612;2023-10-19T05:20:21;21.10;;;13.02;;
1106;SDS011;540;49.448;8.612;2023-10-19T05:22:52;16.55;;;12.40;;
1106;SDS011;540;49.448;8.612;2023-10-19T05:25:20;18.67;;;12.65;;
1106;SDS011;540;49.448;8.612;2023-10-19T05:27:49;20.33;;;12.95;;
1106;SDS011;540;49.448;8.612;2023-10-19T05:30:18;17.67;;;12.45;;
1106;SDS011;540;49.448;8.612;2023-10-19T05:32:49;17.13;;;11.30;;
1106;SDS011;540;49.448;8.612;2023-10-19T05:35:22;16.88;;;12.60;;
1106;SDS011;540;49.448;8.612;2023-10-19T05:37:52;19.20;;;12.25;;
1106;SDS011;540;49.448;8.612;2023-10-19T05:40:22;16.90;;;12.13;;
1106;SDS011;540;49.448;8.612;2023-10-19T05:42:55;19.63;;;13.32;;
1106;SDS011;540;49.448;8.612;2023-10-19T05:45:27;16.40;;;12.82;;
1106;SDS011;540;49.448;8.612;2023-10-19T05:47:57;17.73;;;12.65;;
1106;SDS011;540;49.448;8.612;2023-10-19T05:50:26;15.75;;;11.68;;
1106;SDS011;540;49.448;8.612;2023-10-19T05:52:54;18.30;;;12.18;;
1106;SDS011;540;49.448;8.612;2023-10-19T05:55:22;16.77;;;12.43;;
1106;SDS011;540;49.448;8.612;2023-10-19T05:57:51;22.33;;;12.27;;
1106;SDS011;540;49.448;8.612;2023-10-19T06:00:19;18.38;;;12.20;;
1106;SDS011;540;49.448;8.612;2023-10-19T06:02:49;17.25;;;11.98;;
1106;SDS011;540;49.448;8.612;2023-10-19T06:05:18;17.52;;;12.35;;
1106;SDS011;540;49.448;8.612;2023-10-19T06:07:49;17.73;;;12.05;;
1106;SDS011;540;49.448;8.612;2023-10-19T06:10:19;16.83;;;12.82;;
1106;SDS011;540;49.448;8.612;2023-10-19T06:12:49;21.70;;;13.32;;
1106;SDS011;540;49.448;8.612;2023-10-19T06:15:19;19.73;;;12.40;;
1106;SDS011;540;49.448;8.612;2023-10-19T06:17:50;20.92;;;12.30;;
1106;SDS011;540;49.448;8.612;2023-10-19T06:20:21;17.67;;;11.25;;
1106;SDS011;540;49.448;8.612;2023-10-19T06:22:53;17.83;;;11.98;;
1106;SDS011;540;49.448;8.612;2023-10-19T06:25:25;20.33;;;12.20;;
1106;SDS011;540;49.448;8.612;2023-10-19T06:27:53;14.80;;;11.25;;
1106;SDS011;540;49.448;8.612;2023-10-19T06:30:23;14.80;;;11.27;;
1106;SDS011;540;49.448;8.612;2023-10-19T06:32:54;19.83;;;10.80;;
1106;SDS011;540;49.448;8.612;2023-10-19T06:35:32;14.40;;;9.82;;
1106;SDS011;540;49.448;8.612;2023-10-19T06:38:02;11.48;;;9.43;;
1106;SDS011;540;49.448;8.612;2023-10-19T06:40:31;13.75;;;10.13;;
1106;SDS011;540;49.448;8.612;2023-10-19T06:43:02;15.85;;;9.30;;
1106;SDS011;540;49.448;8.612;2023-10-19T06:45:31;15.13;;;9.32;;
1106;SDS011;540;49.448;8.612;2023-10-19T06:48:04;12.80;;;9.07;;
1106;SDS011;540;49.448;8.612;2023-10-19T06:50:34;12.60;;;8.68;;
1106;SDS011;540;49.448;8.612;2023-10-19T06:53:03;13.10;;;9.10;;
1106;SDS011;540;49.448;8.612;2023-10-19T06:55:34;15.05;;;9.40;;
1106;SDS011;540;49.448;8.612;2023-10-19T06:58:05;13.95;;;9.13;;
1106;SDS011;540;49.448;8.612;2023-10-19T07:00:35;12.55;;;9.25;;
1106;SDS011;540;49.448;8.612;2023-10-19T07:03:13;11.43;;;8.23;;
1106;SDS011;540;49.448;8.612;2023-10-19T07:05:43;12.38;;;8.88;;
1106;SDS011;540;49.448;8.612;2023-10-19T07:08:10;15.18;;;8.65;;
1106;SDS011;540;49.448;8.612;2023-10-19T07:10:37;17.20;;;10.02;;
1106;SDS011;540;49.448;8.612;2023-10-19T07:13:08;14.30;;;9.50;;
1106;SDS011;540;49.448;8.612;2023-10-19T07:15:36;14.55;;;8.43;;
1106;SDS011;540;49.448;8.612;2023-10-19T07:18:08;14.15;;;9.40;;
1106;SDS011;540;49.448;8.612;2023-10-19T07:20:39;15.20;;;10.50;;
1106;SDS011;540;49.448;8.612;2023-10-19T07:23:18;13.77;;;8.50;;
1106;SDS011;540;49.448;8.612;2023-10-19T07:25:48;13.50;;;8.35;;
1106;SDS011;540;49.448;8.612;2023-10-19T07:28:21;13.07;;;8.38;;
1106;SDS011;540;49.448;8.612;2023-10-19T07:30:52;13.73;;;8.50;;
1106;SDS011;540;49.448;8.612;2023-10-19T07:33:25;14.55;;;8.43;;
1106;SDS011;540;49.448;8.612;2023-10-19T07:35:53;12.30;;;8.32;;
1106;SDS011;540;49.448;8.612;2023-10-19T07:38:24;12.27;;;8.98;;
1106;SDS011;540;49.448;8.612;2023-10-19T07:40:55;13.32;;;8.35;;
1106;SDS011;540;49.448;8.612;2023-10-19T07:43:26;13.63;;;8.23;;
1106;SDS011;540;49.448;8.612;2023-10-19T07:45:55;13.95;;;8.15;;
1106;SDS011;540;49.448;8.612;2023-10-19T07:48:23;13.13;;;7.93;;
1106;SDS011;540;49.448;8.612;2023-10-19T07:50:52;9.98;;;7.68;;
1106;SDS011;540;49.448;8.612;2023-10-19T07:53:20;15.27;;;7.50;;
1106;SDS011;540;49.448;8.612;2023-10-19T07:55:49;12.80;;;7.90;;
1106;SDS011;540;49.448;8.612;2023-10-19T07:58:18;12.25;;;7.43;;
1106;SDS011;540;49.448;8.612;2023-10-19T08:00:59;10.90;;;7.57;;
1106;SDS011;540;49.448;8.612;2023-10-19T08:03:29;12.50;;;7.20;;
1106;SDS011;540;49.448;8.612;2023-10-19T08:05:58;17.58;;;8.80;;
1106;SDS011;540;49.448;8.612;2023-10-19T08:08:30;9.70;;;7.15;;
1106;SDS011;540;49.448;8.612;2023-10-19T08:11:03;11.00;;;7.10;;
1106;SDS011;540;49.448;8.612;2023-10-19T08:13:35;9.70;;;7.07;;
1106;SDS011;540;49.448;8.612;2023-10-19T08:16:03;13.85;;;7.53;;
1106;SDS011;540;49.448;8.612;2023-10-19T08:18:34;13.68;;;6.93;;
1106;SDS011;540;49.448;8.612;2023-10-19T08:21:03;11.48;;;6.13;;
1106;SDS011;540;49.448;8.612;2023-10-19T08:23:34;9.73;;;6.38;;
1106;SDS011;540;49.448;8.612;2023-10-19T08:26:05;7.13;;;5.63;;
1106;SDS011;540;49.448;8.612;2023-10-19T08:28:35;10.95;;;6.65;;
1106;SDS011;540;49.448;8.612;2023-10-19T08:31:07;7.65;;;6.05;;
1106;SDS011;540;49.448;8.612;2023-10-19T08:33:38;10.07;;;5.18;;
1106;SDS011;540;49.448;8.612;2023-10-19T08:36:15;8.02;;;4.93;;
1106;SDS011;540;49.448;8.612;2023-10-19T08:38:47;8.18;;;4.50;;
1106;SDS011;540;49.448;8.612;2023-10-19T08:41:16;5.95;;;3.30;;
1106;SDS011;540;49.448;8.612;2023-10-19T08:43:44;7.57;;;4.18;;
1106;SDS011;540;49.448;8.612;2023-10-19T08:46:12;7.53;;;4.43;;
1106;SDS011;540;49.448;8.612;2023-10-19T08:48:41;4.88;;;3.50;;
1106;SDS011;540;49.448;8.612;2023-10-19T08:51:10;6.90;;;3.63;;
1106;SDS011;540;49.448;8.612;2023-10-19T08:53:39;7.43;;;3.78;;
1106;SDS011;540;49.448;8.612;2023-10-19T08:56:10;6.13;;;3.33;;
1106;SDS011;540;49.448;8.612;2023-10-19T08:58:44;7.55;;;3.72;;
1106;SDS011;540;49.448;8.612;2023-10-19T09:01:14;7.80;;;4.43;;
1106;SDS011;540;49.448;8.612;2023-10-19T09:03:44;5.85;;;3.75;;
1106;SDS011;540;49.448;8.612;2023-10-19T09:06:14;6.70;;;4.30;;
1106;SDS011;540;49.448;8.612;2023-10-19T09:08:42;7.15;;;3.70;;
1106;SDS011;540;49.448;8.612;2023-10-19T09:11:13;4.88;;;3.75;;
1106;SDS011;540;49.448;8.612;2023-10-19T09:13:46;6.95;;;3.97;;
1106;SDS011;540;49.448;8.612;2023-10-19T09:16:17;5.90;;;3.95;;
1106;SDS011;540;49.448;8.612;2023-10-19T09:18:46;6.35;;;3.65;;
1106;SDS011;540;49.448;8.612;2023-10-19T09:21:15;8.82;;;3.88;;
1106;SDS011;540;49.448;8.612;2023-10-19T09:26:18;9.68;;;3.97;;
1106;SDS011;540;49.448;8.612;2023-10-19T09:28:50;8.13;;;3.35;;
1106;SDS011;540;49.448;8.612;2023-10-19T09:31:20;7.05;;;3.13;;
1106;SDS011;540;49.448;8.612;2023-10-19T09:33:53;8.43;;;3.28;;
1106;SDS011;540;49.448;8.612;2023-10-19T09:36:24;5.15;;;3.40;;
1106;SDS011;540;49.448;8.612;2023-10-19T09:38:58;6.57;;;3.00;;
1106;SDS011;540;49.448;8.612;2023-10-19T09:41:27;5.57;;;2.85;;
1106;SDS011;540;49.448;8.612;2023-10-19T09:44:04;7.18;;;2.33;;
1106;SDS011;540;49.448;8.612;2023-10-19T09:46:39;4.18;;;2.72;;
1106;SDS011;540;49.448;8.612;2023-10-19T09:49:08;4.57;;;2.63;;
1106;SDS011;540;49.448;8.612;2023-10-19T09:51:40;5.88;;;2.50;;
1106;SDS011;540;49.448;8.612;2023-10-19T09:54:32;3.97;;;2.55;;
1106;SDS011;540;49.448;8.612;2023-10-19T09:57:14;4.57;;;2.53;;
1106;SDS011;540;49.448;8.612;2023-10-19T09:59:51;4.82;;;2.75;;
1106;SDS011;540;49.448;8.612;2023-10-19T10:02:41;6.07;;;2.42;;
1106;SDS011;540;49.448;8.612;2023-10-19T10:08:30;4.30;;;2.75;;
1106;SDS011;540;49.448;8.612;2023-10-19T10:11:01;6.78;;;2.70;;
1106;SDS011;540;49.448;8.612;2023-10-19T10:13:44;6.35;;;2.55;;
1106;SDS011;540;49.448;8.612;2023-10-19T10:16:19;4.45;;;2.65;;
1106;SDS011;540;49.448;8.612;2023-10-19T10:18:50;6.18;;;2.78;;
1106;SDS011;540;49.448;8.612;2023-10-19T10:21:26;5.28;;;3.42;;
1106;SDS011;540;49.448;8.612;2023-10-19T10:23:55;3.88;;;2.65;;
1106;SDS011;540;49.448;8.612;2023-10-19T10:26:27;4.63;;;2.42;;
1106;SDS011;540;49.448;8.612;2023-10-19T10:29:07;6.25;;;2.38;;
1106;SDS011;540;49.448;8.612;2023-10-19T10:31:43;7.45;;;2.90;;
1106;SDS011;540;49.448;8.612;2023-10-19T10:37:11;4.68;;;2.33;;
1106;SDS011;540;49.448;8.612;2023-10-19T10:39:40;5.32;;;2.85;;
1106;SDS011;540;49.448;8.612;2023-10-19T10:42:11;3.50;;;2.08;;
1106;SDS011;540;49.448;8.612;2023-10-19T10:44:40;5.78;;;2.75;;
1106;SDS011;540;49.448;8.612;2023-10-19T10:47:11;3.28;;;2.40;;
1106;SDS011;540;49.448;8.612;2023-10-19T10:49:48;3.22;;;2.53;;
1106;SDS011;540;49.448;8.612;2023-10-19T10:52:24;6.10;;;2.70;;
1106;SDS011;540;49.448;8.612;2023-10-19T10:54:55;4.38;;;2.22;;
1106;SDS011;540;49.448;8.612;2023-10-19T10:57:30;6.10;;;2.45;;
1106;SDS011;540;49.448;8.612;2023-10-19T11:00:02;5.53;;;2.45;;
1106;SDS011;540;49.448;8.612;2023-10-19T11:02:35;4.93;;;2.70;;
1106;SDS011;540;49.448;8.612;2023-10-19T11:05:06;6.07;;;2.47;;
1106;SDS011;540;49.448;8.612;2023-10-19T11:07:38;5.07;;;2.55;;
1106;SDS011;540;49.448;8.612;2023-10-19T11:10:08;5.55;;;2.50;;
1106;SDS011;540;49.448;8.612;2023-10-19T11:12:36;4.50;;;2.95;;
1106;SDS011;540;49.448;8.612;2023-10-19T11:15:05;3.72;;;2.83;;
1106;SDS011;540;49.448;8.612;2023-10-19T11:17:43;4.45;;;2.58;;
1106;SDS011;540;49.448;8.612;2023-10-19T11:20:20;7.25;;;2.75;;
1106;SDS011;540;49.448;8.612;2023-10-19T11:22:55;3.95;;;2.05;;
1106;SDS011;540;49.448;8.612;2023-10-19T11:25:26;4.18;;;2.08;;
1106;SDS011;540;49.448;8.612;2023-10-19T11:27:57;4.32;;;2.25;;
1106;SDS011;540;49.448;8.612;2023-10-19T11:30:28;3.90;;;2.90;;
1106;SDS011;540;49.448;8.612;2023-10-19T11:32:59;3.80;;;2.40;;
1106;SDS011;540;49.448;8.612;2023-10-19T11:35:28;4.57;;;2.50;;
1106;SDS011;540;49.448;8.612;2023-10-19T11:37:58;4.80;;;2.92;;
1106;SDS011;540;49.448;8.612;2023-10-19T11:40:29;4.05;;;2.75;;
1106;SDS011;540;49.448;8.612;2023-10-19T11:43:02;5.88;;;3.50;;
1106;SDS011;540;49.448;8.612;2023-10-19T11:45:31;6.45;;;3.42;;
1106;SDS011;540;49.448;8.612;2023-10-19T11:48:05;4.93;;;3.70;;
1106;SDS011;540;49.448;8.612;2023-10-19T11:50:34;9.07;;;4.50;;
1106;SDS011;540;49.448;8.612;2023-10-19T11:53:01;5.63;;;4.13;;
1106;SDS011;540;49.448;8.612;2023-10-19T11:55:31;5.93;;;4.32;;
1106;SDS011;540;49.448;8.612;2023-10-19T11:57:59;7.07;;;4.50;;
1106;SDS011;540;49.448;8.612;2023-10-19T12:00:27;6.00;;;4.32;;
1106;SDS011;540;49.448;8.612;2023-10-19T12:03:06;6.18;;;4.85;;
1106;SDS011;540;49.448;8.612;2023-10-19T12:05:33;9.10;;;5.82;;
1106;SDS011;540;49.448;8.612;2023-10-19T12:08:03;8.18;;;5.35;;
1106;SDS011;540;49.448;8.612;2023-10-19T12:10:33;10.73;;;5.93;;
1106;SDS011;540;49.448;8.612;2023-10-19T12:13:02;6.80;;;5.18;;
1106;SDS011;540;49.448;8.612;2023-10-19T12:15:32;9.57;;;5.43;;
1106;SDS011;540;49.448;8.612;2023-10-19T12:18:02;9.40;;;6.00;;
1106;SDS011;540;49.448;8.612;2023-10-19T12:20:33;8.38;;;5.70;;
1106;SDS011;540;49.448;8.612;2023-10-19T12:23:02;10.05;;;6.50;;
1106;SDS011;540;49.448;8.612;2023-10-19T12:25:31;8.68;;;5.97;;
1106;SDS011;540;49.448;8.612;2023-10-19T12:28:20;10.63;;;6.47;;
1106;SDS011;540;49.448;8.612;2023-10-19T12:30:51;9.98;;;6.75;;
1106;SDS011;540;49.448;8.612;2023-10-19T12:33:19;8.95;;;6.55;;
1106;SDS011;540;49.448;8.612;2023-10-19T12:35:50;7.75;;;6.78;;
1106;SDS011;540;49.448;8.612;2023-10-19T12:38:22;10.88;;;7.30;;
1106;SDS011;540;49.448;8.612;2023-10-19T12:40:51;10.88;;;7.47;;
1106;SDS011;540;49.448;8.612;2023-10-19T12:43:22;9.55;;;7.18;;
1106;SDS011;540;49.448;8.612;2023-10-19T12:45:51;12.60;;;7.88;;
1106;SDS011;540;49.448;8.612;2023-10-19T12:48:20;11.65;;;7.63;;
1106;SDS011;540;49.448;8.612;2023-10-19T12:50:53;11.95;;;7.60;;
1106;SDS011;540;49.448;8.612;2023-10-19T12:53:20;11.93;;;7.80;;
1106;SDS011;540;49.448;8.612;2023-10-19T12:55:51;9.93;;;8.10;;
1106;SDS011;540;49.448;8.612;2023-10-19T12:58:19;12.30;;;8.50;;
1106;SDS011;540;49.448;8.612;2023-10-19T13:00:48;11.35;;;8.82;;
1106;SDS011;540;49.448;8.612;2023-10-19T13:03:16;12.25;;;8.13;;
1106;SDS011;540;49.448;8.612;2023-10-19T13:05:45;17.23;;;9.20;;
1106;SDS011;540;49.448;8.612;2023-10-19T13:08:15;10.68;;;8.23;;
1106;SDS011;540;49.448;8.612;2023-10-19T13:10:46;15.70;;;9.25;;
1106;SDS011;540;49.448;8.612;2023-10-19T13:13:15;12.23;;;8.35;;
1106;SDS011;540;49.448;8.612;2023-10-19T13:15:43;11.57;;;8.13;;
1106;SDS011;540;49.448;8.612;2023-10-19T13:18:14;11.32;;;8.77;;
1106;SDS011;540;49.448;8.612;2023-10-19T13:20:46;15.32;;;9.60;;
1106;SDS011;540;49.448;8.612;2023-10-19T13:23:16;9.75;;;7.57;;
1106;SDS011;540;49.448;8.612;2023-10-19T13:25:48;16.58;;;8.88;;
1106;SDS011;540;49.448;8.612;2023-10-19T13:28:20;11.90;;;8.68;;
1106;SDS011;540;49.448;8.612;2023-10-19T13:30:50;12.27;;;8.45;;
1106;SDS011;540;49.448;8.612;2023-10-19T13:33:19;13.75;;;9.57;;
1106;SDS011;540;49.448;8.612;2023-10-19T13:35:48;12.55;;;9.32;;
1106;SDS011;540;49.448;8.612;2023-10-19T13:38:18;18.70;;;9.30;;
1106;SDS011;540;49.448;8.612;2023-10-19T13:40:47;12.60;;;8.40;;
1106;SDS011;540;49.448;8.612;2023-10-19T13:43:38;11.63;;;8.75;;
1106;SDS011;540;49.448;8.612;2023-10-19T13:46:08;11.18;;;8.75;;
1106;SDS011;540;49.448;8.612;2023-10-19T13:48:36;13.52;;;8.05;;
1106;SDS011;540;49.448;8.612;2023-10-19T13:51:15;12.27;;;9.27;;
1106;SDS011;540;49.448;8.612;2023-10-19T13:53:59;10.60;;;8.48;;
1106;SDS011;540;49.448;8.612;2023-10-19T13:56:27;13.43;;;9.23;;
1106;SDS011;540;49.448;8.612;2023-10-19T13:58:56;12.85;;;8.93;;
1106;SDS011;540;49.448;8.612;2023-10-19T14:01:25;14.43;;;9.68;;
1106;SDS011;540;49.448;8.612;2023-10-19T14:03:55;14.48;;;10.23;;
1106;SDS011;540;49.448;8.612;2023-10-19T14:06:23;15.85;;;9.70;;
1106;SDS011;540;49.448;8.612;2023-10-19T14:08:57;13.65;;;9.63;;
1106;SDS011;540;49.448;8.612;2023-10-19T14:11:42;13.45;;;9.65;;
1106;SDS011;540;49.448;8.612;2023-10-19T14:14:11;12.82;;;10.13;;
1106;SDS011;540;49.448;8.612;2023-10-19T14:16:46;14.90;;;9.85;;
1106;SDS011;540;49.448;8.612;2023-10-19T14:19:27;14.38;;;10.07;;
1106;SDS011;540;49.448;8.612;2023-10-19T14:21:59;15.57;;;10.32;;
1106;SDS011;540;49.448;8.612;2023-10-19T14:24:28;11.73;;;9.90;;
1106;SDS011;540;49.448;8.612;2023-10-19T14:26:56;13.23;;;10.00;;
1106;SDS011;540;49.448;8.612;2023-10-19T14:29:26;11.93;;;9.18;;
1106;SDS011;540;49.448;8.612;2023-10-19T14:31:53;14.20;;;9.80;;
1106;SDS011;540;49.448;8.612;2023-10-19T14:34:21;14.15;;;9.40;;
1106;SDS011;540;49.448;8.612;2023-10-19T14:36:50;13.05;;;10.43;;
1106;SDS011;540;49.448;8.612;2023-10-19T14:39:20;14.38;;;10.35;;
1106;SDS011;540;49.448;8.612;2023-10-19T14:41:54;15.93;;;9.90;;
1106;SDS011;540;49.448;8.612;2023-10-19T14:44:31;19.25;;;10.93;;
1106;SDS011;540;49.448;8.612;2023-10-19T14:47:08;17.85;;;11.13;;
1106;SDS011;540;49.448;8.612;2023-10-19T14:49:37;17.40;;;11.77;;
1106;SDS011;540;49.448;8.612;2023-10-19T14:52:05;20.67;;;12.70;;
1106;SDS011;540;49.448;8.612;2023-10-19T14:54:33;18.92;;;12.30;;
1106;SDS011;540;49.448;8.612;2023-10-19T14:57:03;17.10;;;12.00;;
1106;SDS011;540;49.448;8.612;2023-10-19T14:59:31;15.68;;;11.27;;
1106;SDS011;540;49.448;8.612;2023-10-19T15:02:00;16.42;;;12.60;;
1106;SDS011;540;49.448;8.612;2023-10-19T15:04:29;23.00;;;12.68;;
1106;SDS011;540;49.448;8.612;2023-10-19T15:06:57;19.60;;;10.73;;
1106;SDS011;540;49.448;8.612;2023-10-19T15:09:26;13.93;;;11.20;;
1106;SDS011;540;49.448;8.612;2023-10-19T15:11:56;15.80;;;12.45;;
1106;SDS011;540;49.448;8.612;2023-10-19T15:14:27;20.52;;;12.68;;
1106;SDS011;540;49.448;8.612;2023-10-19T15:16:55;12.70;;;9.30;;
1106;SDS011;540;49.448;8.612;2023-10-19T15:19:23;10.63;;;8.65;;
1106;SDS011;540;49.448;8.612;2023-10-19T15:21:51;14.45;;;7.70;;
1106;SDS011;540;49.448;8.612;2023-10-19T15:24:19;7.10;;;5.95;;
1106;SDS011;540;49.448;8.612;2023-10-19T15:26:47;9.13;;;4.90;;
1106;SDS011;540;49.448;8.612;2023-10-19T15:29:16;7.25;;;4.50;;
1106;SDS011;540;49.448;8.612;2023-10-19T15:31:47;9.88;;;4.65;;
1106;SDS011;540;49.448;8.612;2023-10-19T15:34:15;5.95;;;3.97;;
1106;SDS011;540;49.448;8.612;2023-10-19T15:36:46;6.22;;;4.15;;
1106;SDS011;540;49.448;8.612;2023-10-19T15:39:16;5.85;;;3.88;;
1106;SDS011;540;49.448;8.612;2023-10-19T15:41:44;6.47;;;3.35;;
1106;SDS011;540;49.448;8.612;2023-10-19T15:44:12;7.15;;;4.18;;
1106;SDS011;540;49.448;8.612;2023-10-19T15:46:40;5.07;;;3.80;;